createdAt,value
2022-09-28T00:01:33.381Z,4165.6
2022-09-28T00:07:08.377Z,4165.2
2022-09-28T00:13:05.136Z,4162
2022-09-28T00:18:40.393Z,4166.2
2022-09-28T00:24:16.295Z,4163.5
2022-09-28T00:29:51.338Z,4167.6
2022-09-28T00:35:31.933Z,4164.6
2022-09-28T00:41:16.692Z,4164.9
2022-09-28T00:46:57.434Z,4163
2022-09-28T00:52:32.722Z,4162.2
2022-09-28T00:58:08.620Z,4162
2022-09-28T01:03:43.546Z,4162.9
2022-09-28T01:09:21.214Z,4161.4
2022-09-28T01:14:55.889Z,4161.2
2022-09-28T01:20:33.379Z,4162.4
2022-09-28T01:26:08.369Z,4159.4
2022-09-28T01:32:08.508Z,4161.2
2022-09-28T01:37:51.137Z,4161.4
2022-09-28T01:43:27.291Z,4161.9
2022-09-28T01:49:02.564Z,4162.4
2022-09-28T01:54:48.342Z,4162.5
2022-09-28T02:00:23.351Z,4157.2
2022-09-28T02:05:58.298Z,4159.4
2022-09-28T02:11:55.012Z,4158
2022-09-28T02:17:27.521Z,4161.5
2022-09-28T02:23:03.440Z,4157.5
2022-09-28T02:28:38.460Z,4156.3
2022-09-28T02:34:13.506Z,4158.9
2022-09-28T02:39:49.180Z,4159.4
2022-09-28T02:45:24.757Z,4160.9
2022-09-28T02:50:59.756Z,4158.2
2022-09-28T02:56:34.587Z,4158
2022-09-28T03:02:10.557Z,4156.7
2022-09-28T03:07:46.501Z,4158.5
2022-09-28T03:13:43.083Z,4154.2
2022-09-28T03:19:38.272Z,4155.2
2022-09-28T03:25:14.219Z,4153
2022-09-28T03:31:14.511Z,4158.4
2022-09-28T03:36:50.539Z,4156.2
2022-09-28T03:42:25.496Z,4153
2022-09-28T03:48:00.836Z,4154.7
2022-09-28T03:53:35.699Z,4153
2022-09-28T03:59:10.889Z,4153.5
2022-09-28T04:04:45.914Z,4153.2
2022-09-28T04:10:21.020Z,4152.5
2022-09-28T04:15:56.676Z,4152.3
2022-09-28T04:21:32.717Z,4151.5
2022-09-28T04:27:07.631Z,4151.3
2022-09-28T04:32:43.929Z,4152.8
2022-09-28T04:38:57.155Z,4152
2022-09-28T04:44:32.115Z,4151.5
2022-09-28T04:50:06.664Z,4153
2022-09-28T04:55:42.452Z,4153.3
2022-09-28T05:01:18.822Z,4152.2
2022-09-28T05:06:53.664Z,4151.2
2022-09-28T05:12:50.271Z,4148.1
2022-09-28T05:18:28.193Z,4148.5
2022-09-28T05:24:07.151Z,4148.6
2022-09-28T05:29:44.038Z,4149.6
2022-09-28T05:35:20.322Z,4150.8
2022-09-28T05:40:56.224Z,4149
2022-09-28T05:46:37.916Z,4150
2022-09-28T05:52:13.840Z,4151.3
2022-09-28T05:57:48.975Z,4148.5
2022-09-28T06:03:56.581Z,4149.6
2022-09-28T06:09:32.122Z,4147.6
2022-09-28T06:15:09.102Z,4148.3
2022-09-28T06:20:44.083Z,4147
2022-09-28T06:26:18.942Z,4148.6
2022-09-28T06:31:53.712Z,4146.5
2022-09-28T06:37:29.110Z,4147.6
2022-09-28T06:43:03.631Z,4147
2022-09-28T06:48:38.388Z,4146.5
2022-09-28T06:54:15.616Z,4150.5
2022-09-28T06:59:51.731Z,4158
2022-09-28T07:05:26.865Z,4147.1
2022-09-28T07:11:23.301Z,4151.3
2022-09-28T07:17:16.694Z,4152.2
2022-09-28T07:22:51.982Z,4151.5
2022-09-28T07:28:27.669Z,4156.5
2022-09-28T07:34:02.724Z,4155
2022-09-28T07:39:37.961Z,4175.3
2022-09-28T07:45:12.883Z,4176.4
2022-09-28T07:50:49.026Z,4194.7
2022-09-28T07:56:24.096Z,4200.7
2022-09-28T08:02:00.072Z,4201.1
2022-09-28T08:07:35.997Z,4179.3
2022-09-28T08:13:32.405Z,4170.7
2022-09-28T08:19:15.617Z,4169.9
2022-09-28T08:24:50.467Z,4180.6
2022-09-28T08:30:27.210Z,4194.2
2022-09-28T08:36:02.585Z,4185.2
2022-09-28T08:41:37.419Z,4202.1
2022-09-28T08:47:12.898Z,4196.7
2022-09-28T08:52:47.889Z,4194.4
2022-09-28T08:58:22.657Z,4182.5
2022-09-28T09:03:57.972Z,4203.1
2022-09-28T09:09:33.303Z,4209.9
2022-09-28T09:15:09.347Z,4213.3
2022-09-28T09:20:44.904Z,4215.1
2022-09-28T09:26:27.008Z,4206.8
2022-09-28T09:32:08.257Z,4210.1
2022-09-28T09:37:43.222Z,4206.9
2022-09-28T09:43:31.677Z,4209.8
2022-09-28T09:49:06.880Z,4204.4
2022-09-28T09:54:41.779Z,4203.4
2022-09-28T10:00:16.588Z,4204.9
2022-09-28T10:05:51.323Z,4208.8
2022-09-28T10:11:26.110Z,4217
2022-09-28T10:17:02.616Z,4214.3
2022-09-28T10:22:38.724Z,4202.6
2022-09-28T10:28:13.505Z,4208.1
2022-09-28T10:33:48.623Z,4212.3
2022-09-28T10:39:23.653Z,4212
2022-09-28T10:44:58.547Z,4220.5
2022-09-28T10:50:34.277Z,4216.6
2022-09-28T10:56:09.663Z,4208.6
2022-09-28T11:01:47.320Z,4214
2022-09-28T11:07:22.759Z,4229.7
2022-09-28T11:13:19.919Z,4209.6
2022-09-28T11:19:09.987Z,4223.7
2022-09-28T11:24:45.062Z,4224.2
2022-09-28T11:30:22.006Z,4225
2022-09-28T11:35:57.413Z,4217.1
2022-09-28T11:41:32.990Z,4215.6
2022-09-28T11:47:09.760Z,4216.8
2022-09-28T11:52:44.680Z,4221.5
2022-09-28T11:58:19.615Z,4217.1
2022-09-28T12:04:03.468Z,4222.5
2022-09-28T12:09:38.437Z,4211.5
2022-09-28T12:15:13.336Z,4227.5
2022-09-28T12:20:48.423Z,4222.8
2022-09-28T12:26:23.442Z,4220.2
2022-09-28T12:31:58.640Z,4216
2022-09-28T12:37:34.342Z,4223.8
2022-09-28T12:43:09.452Z,4211.3
2022-09-28T12:48:57.287Z,4215.8
2022-09-28T12:54:46.742Z,4210.3
2022-09-28T13:00:22.911Z,4213
2022-09-28T13:05:57.683Z,4226.9
2022-09-28T13:11:54.758Z,4226.2
2022-09-28T13:17:27.802Z,4226.2
2022-09-28T13:23:02.942Z,4227.7
2022-09-28T13:28:37.863Z,4211.5
2022-09-28T13:34:12.942Z,4219.7
2022-09-28T13:39:48.874Z,4220
2022-09-28T13:45:24.275Z,4225.2
2022-09-28T13:50:59.131Z,4212.3
2022-09-28T13:56:34.011Z,4217.3
2022-09-28T14:02:12.091Z,4215.5
2022-09-28T14:07:48.209Z,4202.2
2022-09-28T14:13:22.972Z,4208.8
2022-09-28T14:18:58.158Z,4206.9
2022-09-28T14:24:33.049Z,4211.5
2022-09-28T14:30:07.962Z,4201.2
2022-09-28T14:35:42.890Z,4202.7
2022-09-28T14:41:19.277Z,4207.4
2022-09-28T14:46:54.122Z,4200.7
2022-09-28T14:52:29.001Z,4198.6
2022-09-28T14:58:04.910Z,4203.1
2022-09-28T15:03:40.077Z,4194
2022-09-28T15:09:15.745Z,4199.6
2022-09-28T15:14:50.675Z,4200.9
2022-09-28T15:20:26.671Z,4204.2
2022-09-28T15:26:24.426Z,4201.2
2022-09-28T15:31:59.759Z,4206.8
2022-09-28T15:37:41.568Z,4199.2
2022-09-28T15:43:16.672Z,4205.4
2022-09-28T15:48:51.452Z,4198.2
2022-09-28T15:54:26.452Z,4210.9
2022-09-28T16:00:04.604Z,4204.9
2022-09-28T16:05:40.973Z,4213
2022-09-28T16:11:15.998Z,4202.2
2022-09-28T16:16:51.016Z,4206.6
2022-09-28T16:22:29.828Z,4212.6
2022-09-28T16:28:06.251Z,4208.4
2022-09-28T16:33:42.336Z,4203.9
2022-09-28T16:39:43.777Z,4198.4
2022-09-28T16:45:19.671Z,4198.4
2022-09-28T16:50:54.848Z,4188.2
2022-09-28T16:56:29.415Z,4192.5
2022-09-28T17:02:05.159Z,4189.7
2022-09-28T17:07:41.409Z,4198.7
2022-09-28T17:13:16.370Z,4190.5
2022-09-28T17:18:50.886Z,4185.7
2022-09-28T17:24:25.708Z,4185.8
2022-09-28T17:30:00.555Z,4188
2022-09-28T17:35:40.684Z,4186.8
2022-09-28T17:41:21.911Z,4186.8
2022-09-28T17:46:56.865Z,4183.5
2022-09-28T17:52:31.652Z,4187.2
2022-09-28T17:58:06.655Z,4182
2022-09-28T18:03:42.211Z,4182.8
2022-09-28T18:09:17.034Z,4185.3
2022-09-28T18:14:53.290Z,4183.3
2022-09-28T18:20:28.237Z,4181.6
2022-09-28T18:26:04.963Z,4178.6
2022-09-28T18:31:40.071Z,4184
2022-09-28T18:37:14.829Z,4179.3
2022-09-28T18:43:10.413Z,4180.3
2022-09-28T18:48:46.327Z,4180
2022-09-28T18:54:21.185Z,4182
2022-09-28T18:59:56.522Z,4179.3
2022-09-28T19:05:32.321Z,4181.8
2022-09-28T19:11:10.498Z,4179
2022-09-28T19:16:47.133Z,4176.8
2022-09-28T19:22:30.799Z,4178
2022-09-28T19:28:12.354Z,4176.1
2022-09-28T19:33:59.096Z,4178.6
2022-09-28T19:39:35.548Z,4177.6
2022-09-28T19:45:39.283Z,4176.6
2022-09-28T19:51:19.756Z,4177.8
2022-09-28T19:56:56.725Z,4177.1
2022-09-28T20:02:35.058Z,4174.9
2022-09-28T20:08:12.613Z,4175.1
2022-09-28T20:13:50.853Z,4178.1
2022-09-28T20:19:25.932Z,4174.9
2022-09-28T20:25:02.086Z,4175.6
2022-09-28T20:31:27.841Z,4174.1
2022-09-28T20:37:03.160Z,4173.6
2022-09-28T20:42:46.365Z,4174.9
2022-09-28T20:48:30.315Z,4173.3
2022-09-28T20:54:13.309Z,4176.4
2022-09-28T20:59:56.421Z,4174.3
2022-09-28T21:05:54.608Z,4172.6
2022-09-28T21:11:29.662Z,4169.6
2022-09-28T21:17:16.662Z,4175.1
2022-09-28T21:22:51.683Z,4172.9
2022-09-28T21:28:27.511Z,4171.9
2022-09-28T21:34:06.775Z,4173.8
2022-09-28T21:39:58.812Z,4170.4
2022-09-28T21:46:01.617Z,4172.1
2022-09-28T21:52:22.376Z,4167.7
2022-09-28T21:58:08.782Z,4168.1
2022-09-28T22:03:52.438Z,4168.7
2022-09-28T22:09:38.580Z,4168.2
2022-09-28T22:15:21.850Z,4168.4
2022-09-28T22:20:58.278Z,4167.4
2022-09-28T22:26:37.068Z,4166.6
2022-09-28T22:32:11.851Z,4169.7
2022-09-28T22:37:46.715Z,4167.1
2022-09-28T22:43:42.335Z,4166.2
2022-09-28T22:49:21.387Z,4168.2
2022-09-28T22:54:56.367Z,4168.4
2022-09-28T23:00:54.645Z,4165.6
2022-09-28T23:06:29.925Z,4167.2
2022-09-28T23:12:27.520Z,4165.1
2022-09-28T23:18:12.574Z,4165.9
2022-09-28T23:23:50.290Z,4163.4
2022-09-28T23:29:32.359Z,4164.6
2022-09-28T23:35:28.481Z,4165.1
2022-09-28T23:41:03.712Z,4162.4
2022-09-28T23:46:39.424Z,4158.7
2022-09-28T23:52:17.560Z,4166.6
2022-09-28T23:58:05.248Z,4164.9
